Date,TemperatureHighF,TemperatureAvgF,TemperatureLowF,DewpointHighF,DewpointAvgF,DewpointLowF,HumidityHigh,HumidityAvg,HumidityLow,PressureMaxIn,PressureMinIn,WindSpeedMaxMPH,WindSpeedAvgMPH,GustSpeedMaxMPH,PrecipitationSumIn
2014-4-1,55.9,42.2,29.7,36.5,30.0,26.1,88,64,40,30.15,30.05,12,1,12,0.00
2014-4-2,58.7,44.6,34.0,38.5,31.4,24.9,79,61,40,30.17,30.05,15,1,15,0.00
2014-4-3,55.9,45.0,33.8,29.8,24.9,20.8,69,46,30,30.17,30.08,9,1,9,0.00
2014-4-4,48.2,39.2,33.2,34.3,29.0,23.9,94,68,47,30.20,29.92,14,2,14,0.18
2014-4-5,48.7,39.7,33.9,42.3,32.6,22.8,97,77,49,29.99,29.75,21,1,21,0.13
2014-4-6,57.7,42.0,28.6,26.9,22.3,14.7,79,49,20,30.24,29.99,12,1,12,0.00
2014-4-7,57.9,46.9,34.5,38.5,25.3,17.3,91,46,25,30.27,29.92,18,2,18,0.06
2014-4-8,63.4,49.7,40.9,56.3,44.3,31.9,98,83,51,29.93,29.33,22,2,22,0.47
2014-4-9,56.7,44.4,34.1,39.2,26.2,7.4,90,54,23,30.01,29.56,15,1,15,0.00
2014-4-10,59.9,45.3,29.7,32.7,21.4,11.5,62,41,19,30.19,30.01,25,4,25,0.00
2014-4-11,67.9,54.8,47.0,50.6,41.2,31.9,93,62,40,30.06,29.94,15,2,15,0.08
2014-4-12,60.2,48.1,40.1,45.4,38.8,30.3,96,74,36,30.24,30.01,6,0,6,0.02
2014-4-13,70.2,51.8,44.5,50.5,39.4,29.6,88,64,41,30.28,30.05,11,1,11,0.04
2014-4-14,73.6,63.0,43.7,56.9,51.8,40.1,92,68,47,30.07,29.88,37,7,37,0.00
2014-4-15,62.5,57.9,37.2,59.2,55.0,35.3,95,90,79,29.91,29.56,33,7,33,0.79
2014-4-16,42.6,34.2,27.2,35.2,23.5,14.0,96,67,37,30.65,29.77,9,1,9,0.22
2014-4-17,44.8,33.9,25.1,26.2,21.4,16.8,80,61,41,30.85,30.65,14,2,14,0.00
2014-4-18,45.9,36.4,26.6,32.5,28.2,23.0,87,73,52,30.70,30.29,10,1,10,0.00
2014-4-19,61.6,46.9,32.6,39.0,31.2,25.6,90,58,30,30.46,30.22,10,1,10,0.00
2014-4-20,57.4,45.1,30.5,28.2,23.1,16.3,79,46,22,30.55,30.37,11,2,11,0.00
2014-4-21,70.2,53.2,35.5,31.9,22.4,7.7,68,36,9,30.37,29.88,15,2,15,0.00
2014-4-22,74.0,59.4,47.2,50.6,40.4,31.7,91,53,28,29.87,29.50,17,3,17,0.00
2014-4-23,53.3,48.6,43.4,50.7,41.6,30.9,95,78,59,29.69,29.47,12,1,12,0.42
2014-4-24,56.4,46.3,37.3,32.7,24.9,17.2,63,44,29,29.98,29.68,13,2,13,0.00
2014-4-25,63.2,50.9,35.3,32.4,25.3,15.7,65,40,17,30.06,29.84,12,1,12,0.00
2014-4-26,50.4,43.5,40.4,42.7,37.5,26.5,96,82,43,29.91,29.80,6,1,6,0.48
2014-4-27,49.4,43.3,39.6,45.0,39.8,35.4,97,88,69,30.11,29.87,9,1,9,0.34
2014-4-28,61.4,48.6,37.6,42.6,37.4,33.8,87,67,43,30.26,30.03,12,1,12,0.00
2014-4-29,46.3,41.0,38.5,40.1,35.8,33.6,89,82,73,30.57,30.25,16,3,16,0.00
2014-4-30,42.4,39.6,37.3,39.7,37.5,34.8,97,92,84,30.57,30.21,13,2,13,0.94